Yorktown Express — WDD6127 — position and weather

sailwx.info

Track history (hours):
 
Tides and Currents Weather Stations Pressure Air Temp Water Temp Dewpoint Dewpoint Depression Visibility Wind Speed Wind Dir Waves Ship Positions

Yorktown Express

Owner: Marine Transport Management, Inc., Jacksonville, FL. More information available from US FCC via Universal Licensing System and Coast Guard Vessel Documentation Center.

Last reported at 2017-Oct-22 07:55 UTC. Time now 2017-Oct-22 08:03 UTC.
Position N 29°41' W 094°60'.

Type: Ship. MMSI: 367168650.

Date/timePositionNaut miles runAvg speedWind from/ knotsBaromVisibWave heightAir tempDewpointWater temp
2017-Oct-22 07:55N 29°41' W 094°60'0 0.0
2017-Oct-22 07:28N 29°41' W 094°60'0 0.0
2017-Oct-22 06:55N 29°41' W 094°60'0 0.0
2017-Oct-22 06:28N 29°41' W 094°60'0 0.0
2017-Oct-22 05:58N 29°41' W 094°60'0 0.0
2017-Oct-22 05:28N 29°41' W 094°60'0 0.0
2017-Oct-22 04:55N 29°41' W 094°60'0 0.0
2017-Oct-22 04:28N 29°41' W 094°60'0 0.0
2017-Oct-22 03:58N 29°41' W 094°60'0 0.0
2017-Oct-22 03:28N 29°41' W 094°60'0 0.0
2017-Oct-22 02:55N 29°41' W 094°60'0 0.0
2017-Oct-22 02:28N 29°41' W 094°60'0 0.0
2017-Oct-22 01:55N 29°41' W 094°60'0 0.0
2017-Oct-22 01:28N 29°41' W 094°60'0 0.0
2017-Oct-22 00:58N 29°41' W 094°60'0 0.0
2017-Oct-22 00:28N 29°41' W 094°60'0 0.0
2017-Oct-21 23:58N 29°41' W 094°60'0 0.0
2017-Oct-21 23:28N 29°41' W 094°60'0 0.0
2017-Oct-21 22:58N 29°41' W 094°60'0 0.0
2017-Oct-21 22:28N 29°41' W 094°60'0 0.0
2017-Oct-21 21:58N 29°41' W 094°60'0 0.0
2017-Oct-21 21:28N 29°41' W 094°60'0 0.0
2017-Oct-21 20:58N 29°41' W 094°60'0 0.0
2017-Oct-21 20:25N 29°41' W 094°60'0 0.0
2017-Oct-21 19:58N 29°41' W 094°60'0 0.0
2017-Oct-21 19:22N 29°41' W 094°60'0 0.0
2017-Oct-21 18:58N 29°41' W 094°60'0 0.0
2017-Oct-21 18:28N 29°41' W 094°60'0 0.0
2017-Oct-21 17:58N 29°41' W 094°60'1 1.7
2017-Oct-21 17:30N 29°41' W 094°59'3 6.7
2017-Oct-21 17:01N 29°38' W 094°58'612.4
2017-Oct-21 16:30N 29°33' W 094°54'611.5
2017-Oct-21 16:00N 29°27' W 094°51'612.1
2017-Oct-21 15:30N 29°22' W 094°48'82117.7
2017-Oct-19 17:04N 25°05' W 080°11'218.4
2017-Oct-19 16:58N 25°06' W 080°10'818.2
2017-Oct-19 16:30N 25°14' W 080°06'918.1
2017-Oct-19 16:00N 25°22' W 080°02'918.4
2017-Oct-19 15:30N 25°31' W 080°01'918.4
2017-Oct-19 15:00N 25°40' W 079°59'918.2
2017-Oct-19 14:30N 25°49' W 080°00'918.4
2017-Oct-19 14:00N 25°59' W 080°02'815.4
2017-Oct-19 13:31N 26°06' W 080°04'3 5.2
2017-Oct-19 13:01N 26°05' W 080°07'0 0.6
2017-Oct-19 12:28N 26°04' W 080°07'0 0.0
2017-Oct-19 11:58N 26°04' W 080°07'0 0.0
2017-Oct-19 11:28N 26°04' W 080°07'0 0.0
2017-Oct-19 10:58N 26°04' W 080°07'0 0.0
2017-Oct-19 10:25N 26°04' W 080°07'0 0.0
2017-Oct-19 09:58N 26°04' W 080°07'0 0.0
2017-Oct-19 09:28N 26°04' W 080°07'0 0.0
2017-Oct-19 08:55N 26°04' W 080°07'0 0.0
2017-Oct-19 08:28N 26°04' W 080°07'0 0.0
2017-Oct-19 07:58N 26°04' W 080°07'0 0.0
2017-Oct-19 07:28N 26°04' W 080°07'0 0.0
2017-Oct-19 06:58N 26°04' W 080°07'0 0.0
2017-Oct-19 06:28N 26°04' W 080°07'0 0.0
2017-Oct-19 05:58N 26°04' W 080°07'0 0.0
2017-Oct-19 05:28N 26°04' W 080°07'0 0.0
2017-Oct-19 04:58N 26°04' W 080°07'0 0.0
2017-Oct-19 04:28N 26°04' W 080°07'0 0.0
2017-Oct-19 03:58N 26°04' W 080°07'0 0.0
2017-Oct-19 03:28N 26°04' W 080°07'0 0.0
2017-Oct-19 02:58N 26°04' W 080°07'0 0.0
2017-Oct-19 02:28N 26°04' W 080°07'0 0.0
2017-Oct-19 02:00N 26°04' W 080°07'1 1.3
2017-Oct-19 01:30N 26°05' W 080°07'3 5.2
2017-Oct-19 01:00N 26°06' W 080°04'3 6.7
2017-Oct-19 00:30N 26°06' W 080°00'3 5.6
2017-Oct-19 00:00N 26°08' W 079°59'4 7.3
2017-Oct-18 23:30N 26°11' W 079°57'4 7.3
2017-Oct-18 23:00N 26°15' W 079°56'4 7.2
2017-Oct-18 22:30N 26°18' W 079°55'4 7.4
2017-Oct-18 22:00N 26°22' W 079°55'4 7.8
2017-Oct-18 21:30N 26°26' W 079°55'713.8
2017-Oct-18 21:00N 26°33' W 079°55'917.6
2017-Oct-18 20:30N 26°42' W 079°55'917.5
2017-Oct-18 20:00N 26°50' W 079°55'918.1
2017-Oct-18 19:30N 26°59' W 079°57'28017.8
2017-Oct-18 03:47N 31°38' W 080°33'518.4
2017-Oct-18 03:30N 31°43' W 080°33'917.7
2017-Oct-18 03:00N 31°51' W 080°36'714.4
2017-Oct-18 02:30N 31°57' W 080°41'612.8
2017-Oct-18 02:00N 32°01' W 080°48'612.7
2017-Oct-18 01:30N 32°02' W 080°55'612.0
2017-Oct-18 01:00N 32°06' W 081°01'4 7.8
2017-Oct-18 00:30N 32°05' W 081°05'3 5.5
2017-Oct-18 00:00N 32°07' W 081°07'1 1.7
2017-Oct-17 23:24N 32°07' W 081°08'0 0.0
2017-Oct-17 22:54N 32°07' W 081°08'0 0.0
2017-Oct-17 22:30N 32°07' W 081°08'0 0.0
2017-Oct-17 22:00N 32°07' W 081°08'0 0.0
2017-Oct-17 21:30N 32°07' W 081°08'0 0.0
2017-Oct-17 21:00N 32°07' W 081°08'0 0.0
2017-Oct-17 20:30N 32°07' W 081°08'0 0.0
2017-Oct-17 20:00N 32°07' W 081°08'0 0.0
2017-Oct-17 19:30N 32°07' W 081°08'0 0.0
2017-Oct-17 19:00N 32°07' W 081°08'0 0.0
2017-Oct-17 18:30N 32°07' W 081°08'0 0.0
2017-Oct-17 18:00N 32°07' W 081°08'0 0.0
2017-Oct-17 17:30N 32°07' W 081°08'0 0.0
2017-Oct-17 17:00N 32°07' W 081°08'0 0.4
2017-Oct-17 16:30N 32°08' W 081°08'2 4.2
2017-Oct-17 16:00N 32°06' W 081°07'2 4.5
2017-Oct-17 15:30N 32°05' W 081°04'4 7.4
2017-Oct-17 15:00N 32°06' W 081°00'510.4
2017-Oct-17 14:30N 32°03' W 080°56'4 7.4
2017-Oct-17 14:00N 32°02' W 080°51'611.9
2017-Oct-17 13:30N 31°59' W 080°45'510.9
2017-Oct-17 13:00N 31°58' W 080°39'2 3.5
2017-Oct-17 12:30N 31°58' W 080°37'0 0.1
2017-Oct-17 11:59N 31°58' W 080°37'0 0.0
2017-Oct-17 11:29N 31°58' W 080°37'0 0.1
2017-Oct-17 11:00N 31°58' W 080°37'0 0.0
2017-Oct-17 10:30N 31°58' W 080°37'0 0.1
2017-Oct-17 10:00N 31°58' W 080°37'0 0.0
2017-Oct-17 09:26N 31°58' W 080°37'0 0.0
2017-Oct-17 08:58N 31°58' W 080°37'0 0.1
2017-Oct-17 08:30N 31°58' W 080°37'0 0.0
2017-Oct-17 07:56N 31°58' W 080°37'0 0.0
2017-Oct-17 07:26N 31°58' W 080°37'0 0.0
2017-Oct-17 06:56N 31°58' W 080°37'0 0.0
2017-Oct-17 06:30N 31°58' W 080°37'0 0.0
2017-Oct-17 06:00N 31°58' W 080°37'0 0.0
2017-Oct-17 05:26N 31°58' W 080°37'0 0.0
2017-Oct-17 04:58N 31°58' W 080°37'0 0.0
2017-Oct-17 04:29N 31°58' W 080°37'0 0.0
2017-Oct-17 04:00N 31°58' W 080°37'0 0.1
2017-Oct-17 03:30N 31°58' W 080°37'0 0.1
2017-Oct-17 03:00N 31°58' W 080°37'0 0.0
2017-Oct-17 02:30N 31°58' W 080°37'0 0.0
2017-Oct-17 02:00N 31°58' W 080°37'0 0.0
2017-Oct-17 01:30N 31°58' W 080°37'0 0.0
2017-Oct-17 01:00N 31°58' W 080°37'0 0.0
2017-Oct-17 00:30N 31°58' W 080°37'0 0.0
2017-Oct-17 00:00N 31°58' W 080°37'0 0.5
2017-Oct-16 23:30N 31°58' W 080°37'0 0.1
2017-Oct-16 23:00N 31°58' W 080°37'0 0.0
2017-Oct-16 22:30N 31°58' W 080°37'0 0.1
2017-Oct-16 22:00N 31°58' W 080°37'0 0.1
2017-Oct-16 21:30N 31°58' W 080°37'0 0.1
2017-Oct-16 21:00N 31°58' W 080°37'0 0.1
2017-Oct-16 20:30N 31°58' W 080°37'0 0.3
2017-Oct-16 20:00N 31°58' W 080°37'0 0.0
2017-Oct-16 19:30N 31°58' W 080°37'0 0.0
2017-Oct-16 19:00N 31°58' W 080°37'0 0.0
2017-Oct-16 18:30N 31°58' W 080°37'0 0.0
2017-Oct-16 18:00N 31°58' W 080°37'0 0.0
2017-Oct-16 17:30N 31°58' W 080°37'0 0.3
2017-Oct-16 17:00N 31°58' W 080°37'0 0.2
2017-Oct-16 16:30N 31°58' W 080°37'0 0.1
2017-Oct-16 16:00N 31°58' W 080°37'0 0.0
2017-Oct-16 15:30N 31°58' W 080°37'0 0.0
2017-Oct-16 15:00N 31°58' W 080°37'0 0.0
2017-Oct-16 14:00N 31°58' W 080°37'0 0.0
2017-Oct-16 13:30N 31°58' W 080°37'0 0.0
2017-Oct-16 13:00N 31°58' W 080°37'0 0.0
2017-Oct-16 12:28N 31°58' W 080°37'0 0.2
2017-Oct-16 12:00N 31°58' W 080°37'2 4.2
2017-Oct-16 11:30N 31°59' W 080°35'3 5.2
2017-Oct-16 11:00N 31°59' W 080°32'510.1
2017-Oct-16 10:30N 32°00' W 080°26'610.2
2017-Oct-16 09:54N 31°60' W 080°19'4 9.8
2017-Oct-16 09:30N 32°00' W 080°14'510.4
2017-Oct-16 09:00N 32°04' W 080°09'713.8
2017-Oct-16 08:30N 32°08' W 080°03'714.1
2017-Oct-16 08:00N 32°12' W 079°56'714.2
2017-Oct-16 07:29N 32°17' W 079°49'1114.2
2017-Oct-16 06:42N 32°24' W 079°39'311.8
2017-Oct-16 06:29N 32°26' W 079°38'613.7
2017-Oct-16 06:00N 32°32' W 079°38'713.1
2017-Oct-16 05:29N 32°39' W 079°41'611.6
2017-Oct-16 04:57N 32°42' W 079°47'713.6
2017-Oct-16 04:27N 32°46' W 079°53'4 8.8
2017-Oct-16 03:59N 32°50' W 079°56'5 6.4
2017-Oct-16 03:16N 32°54' W 079°57'3 0.2
2017-Oct-15 12:58N 32°51' W 079°57'6 7.3
2017-Oct-15 12:06N 32°46' W 079°53'511.5
2017-Oct-15 11:39N 32°43' W 079°48'716.5
2017-Oct-15 11:14N 32°40' W 079°41'311.0
2017-Oct-15 11:00N 32°39' W 079°38'18817.1
2017-Oct-15 00:00N 32°48' W 075°54'20717.2 050 / 101021.310.8 26.018.230.0
2017-Oct-14 12:00N 33°00' W 071°48'11919.8 110 / 161022.410.8 26.021.528.0
2017-Oct-14 06:00N 34°18' W 070°00'35219.6 130 / 261021.5 2.2 24.022.528.0
2017-Oct-13 12:00N 37°36' W 064°00'28023.4 060 / 221026.710.8 22.013.428.0
2017-Oct-13 00:00N 39°36' W 058°36'8113.6 030 / 161023.310.8 18.010.628.0
2017-Oct-12 18:00N 40°36' W 057°24'12020.0 360 / 161020.910.8 18.010.628.0
2017-Oct-12 12:00N 41°36' W 055°06'   320 / 151019.810.8 15.0 1.326.0
Track history (hours):
 
Tides and Currents Weather Stations Pressure Air Temp Water Temp Dewpoint Dewpoint Depression Visibility Wind Speed Wind Dir Waves Ship Positions

Yorktown Express

Owner: Marine Transport Management, Inc., Jacksonville, FL. More information available from US FCC via Universal Licensing System and Coast Guard Vessel Documentation Center.

Last reported at 2017-Oct-22 07:55 UTC. Time now 2017-Oct-22 08:03 UTC.
Position N 29°41' W 094°60'.

Type: Ship. MMSI: 367168650.

Date/timePositionNaut miles runAvg speedWind from/ knotsBaromVisibWave heightAir tempDewpointWater temp
2017-Oct-22 07:55N 29°41' W 094°60'0 0.0
2017-Oct-22 07:28N 29°41' W 094°60'0 0.0
2017-Oct-22 06:55N 29°41' W 094°60'0 0.0
2017-Oct-22 06:28N 29°41' W 094°60'0 0.0
2017-Oct-22 05:58N 29°41' W 094°60'0 0.0
2017-Oct-22 05:28N 29°41' W 094°60'0 0.0
2017-Oct-22 04:55N 29°41' W 094°60'0 0.0
2017-Oct-22 04:28N 29°41' W 094°60'0 0.0
2017-Oct-22 03:58N 29°41' W 094°60'0 0.0
2017-Oct-22 03:28N 29°41' W 094°60'0 0.0
2017-Oct-22 02:55N 29°41' W 094°60'0 0.0
2017-Oct-22 02:28N 29°41' W 094°60'0 0.0
2017-Oct-22 01:55N 29°41' W 094°60'0 0.0
2017-Oct-22 01:28N 29°41' W 094°60'0 0.0
2017-Oct-22 00:58N 29°41' W 094°60'0 0.0
2017-Oct-22 00:28N 29°41' W 094°60'0 0.0
2017-Oct-21 23:58N 29°41' W 094°60'0 0.0
2017-Oct-21 23:28N 29°41' W 094°60'0 0.0
2017-Oct-21 22:58N 29°41' W 094°60'0 0.0
2017-Oct-21 22:28N 29°41' W 094°60'0 0.0
2017-Oct-21 21:58N 29°41' W 094°60'0 0.0
2017-Oct-21 21:28N 29°41' W 094°60'0 0.0
2017-Oct-21 20:58N 29°41' W 094°60'0 0.0
2017-Oct-21 20:25N 29°41' W 094°60'0 0.0
2017-Oct-21 19:58N 29°41' W 094°60'0 0.0
2017-Oct-21 19:22N 29°41' W 094°60'0 0.0
2017-Oct-21 18:58N 29°41' W 094°60'0 0.0
2017-Oct-21 18:28N 29°41' W 094°60'0 0.0
2017-Oct-21 17:58N 29°41' W 094°60'1 1.7
2017-Oct-21 17:30N 29°41' W 094°59'3 6.7
2017-Oct-21 17:01N 29°38' W 094°58'612.4
2017-Oct-21 16:30N 29°33' W 094°54'611.5
2017-Oct-21 16:00N 29°27' W 094°51'612.1
2017-Oct-21 15:30N 29°22' W 094°48'82117.7
2017-Oct-19 17:04N 25°05' W 080°11'218.4
2017-Oct-19 16:58N 25°06' W 080°10'818.2
2017-Oct-19 16:30N 25°14' W 080°06'918.1
2017-Oct-19 16:00N 25°22' W 080°02'918.4
2017-Oct-19 15:30N 25°31' W 080°01'918.4
2017-Oct-19 15:00N 25°40' W 079°59'918.2
2017-Oct-19 14:30N 25°49' W 080°00'918.4
2017-Oct-19 14:00N 25°59' W 080°02'815.4
2017-Oct-19 13:31N 26°06' W 080°04'3 5.2
2017-Oct-19 13:01N 26°05' W 080°07'0 0.6
2017-Oct-19 12:28N 26°04' W 080°07'0 0.0
2017-Oct-19 11:58N 26°04' W 080°07'0 0.0
2017-Oct-19 11:28N 26°04' W 080°07'0 0.0
2017-Oct-19 10:58N 26°04' W 080°07'0 0.0
2017-Oct-19 10:25N 26°04' W 080°07'0 0.0
2017-Oct-19 09:58N 26°04' W 080°07'0 0.0
2017-Oct-19 09:28N 26°04' W 080°07'0 0.0
2017-Oct-19 08:55N 26°04' W 080°07'0 0.0
2017-Oct-19 08:28N 26°04' W 080°07'0 0.0
2017-Oct-19 07:58N 26°04' W 080°07'0 0.0
2017-Oct-19 07:28N 26°04' W 080°07'0 0.0
2017-Oct-19 06:58N 26°04' W 080°07'0 0.0
2017-Oct-19 06:28N 26°04' W 080°07'0 0.0
2017-Oct-19 05:58N 26°04' W 080°07'0 0.0
2017-Oct-19 05:28N 26°04' W 080°07'0 0.0
2017-Oct-19 04:58N 26°04' W 080°07'0 0.0
2017-Oct-19 04:28N 26°04' W 080°07'0 0.0
2017-Oct-19 03:58N 26°04' W 080°07'0 0.0
2017-Oct-19 03:28N 26°04' W 080°07'0 0.0
2017-Oct-19 02:58N 26°04' W 080°07'0 0.0
2017-Oct-19 02:28N 26°04' W 080°07'0 0.0
2017-Oct-19 02:00N 26°04' W 080°07'1 1.3
2017-Oct-19 01:30N 26°05' W 080°07'3 5.2
2017-Oct-19 01:00N 26°06' W 080°04'3 6.7
2017-Oct-19 00:30N 26°06' W 080°00'3 5.6
2017-Oct-19 00:00N 26°08' W 079°59'4 7.3
2017-Oct-18 23:30N 26°11' W 079°57'4 7.3
2017-Oct-18 23:00N 26°15' W 079°56'4 7.2
2017-Oct-18 22:30N 26°18' W 079°55'4 7.4
2017-Oct-18 22:00N 26°22' W 079°55'4 7.8
2017-Oct-18 21:30N 26°26' W 079°55'713.8
2017-Oct-18 21:00N 26°33' W 079°55'917.6
2017-Oct-18 20:30N 26°42' W 079°55'917.5
2017-Oct-18 20:00N 26°50' W 079°55'918.1
2017-Oct-18 19:30N 26°59' W 079°57'28017.8
2017-Oct-18 03:47N 31°38' W 080°33'518.4
2017-Oct-18 03:30N 31°43' W 080°33'917.7
2017-Oct-18 03:00N 31°51' W 080°36'714.4
2017-Oct-18 02:30N 31°57' W 080°41'612.8
2017-Oct-18 02:00N 32°01' W 080°48'612.7
2017-Oct-18 01:30N 32°02' W 080°55'612.0
2017-Oct-18 01:00N 32°06' W 081°01'4 7.8
2017-Oct-18 00:30N 32°05' W 081°05'3 5.5
2017-Oct-18 00:00N 32°07' W 081°07'1 1.7
2017-Oct-17 23:24N 32°07' W 081°08'0 0.0
2017-Oct-17 22:54N 32°07' W 081°08'0 0.0
2017-Oct-17 22:30N 32°07' W 081°08'0 0.0
2017-Oct-17 22:00N 32°07' W 081°08'0 0.0
2017-Oct-17 21:30N 32°07' W 081°08'0 0.0
2017-Oct-17 21:00N 32°07' W 081°08'0 0.0
2017-Oct-17 20:30N 32°07' W 081°08'0 0.0
2017-Oct-17 20:00N 32°07' W 081°08'0 0.0
2017-Oct-17 19:30N 32°07' W 081°08'0 0.0
2017-Oct-17 19:00N 32°07' W 081°08'0 0.0
2017-Oct-17 18:30N 32°07' W 081°08'0 0.0
2017-Oct-17 18:00N 32°07' W 081°08'0 0.0
2017-Oct-17 17:30N 32°07' W 081°08'0 0.0
2017-Oct-17 17:00N 32°07' W 081°08'0 0.4
2017-Oct-17 16:30N 32°08' W 081°08'2 4.2
2017-Oct-17 16:00N 32°06' W 081°07'2 4.5
2017-Oct-17 15:30N 32°05' W 081°04'4 7.4
2017-Oct-17 15:00N 32°06' W 081°00'510.4
2017-Oct-17 14:30N 32°03' W 080°56'4 7.4
2017-Oct-17 14:00N 32°02' W 080°51'611.9
2017-Oct-17 13:30N 31°59' W 080°45'510.9
2017-Oct-17 13:00N 31°58' W 080°39'2 3.5
2017-Oct-17 12:30N 31°58' W 080°37'0 0.1
2017-Oct-17 11:59N 31°58' W 080°37'0 0.0
2017-Oct-17 11:29N 31°58' W 080°37'0 0.1
2017-Oct-17 11:00N 31°58' W 080°37'0 0.0
2017-Oct-17 10:30N 31°58' W 080°37'0 0.1
2017-Oct-17 10:00N 31°58' W 080°37'0 0.0
2017-Oct-17 09:26N 31°58' W 080°37'0 0.0
2017-Oct-17 08:58N 31°58' W 080°37'0 0.1
2017-Oct-17 08:30N 31°58' W 080°37'0 0.0
2017-Oct-17 07:56N 31°58' W 080°37'0 0.0
2017-Oct-17 07:26N 31°58' W 080°37'0 0.0
2017-Oct-17 06:56N 31°58' W 080°37'0 0.0
2017-Oct-17 06:30N 31°58' W 080°37'0 0.0
2017-Oct-17 06:00N 31°58' W 080°37'0 0.0
2017-Oct-17 05:26N 31°58' W 080°37'0 0.0
2017-Oct-17 04:58N 31°58' W 080°37'0 0.0
2017-Oct-17 04:29N 31°58' W 080°37'0 0.0
2017-Oct-17 04:00N 31°58' W 080°37'0 0.1
2017-Oct-17 03:30N 31°58' W 080°37'0 0.1
2017-Oct-17 03:00N 31°58' W 080°37'0 0.0
2017-Oct-17 02:30N 31°58' W 080°37'0 0.0
2017-Oct-17 02:00N 31°58' W 080°37'0 0.0
2017-Oct-17 01:30N 31°58' W 080°37'0 0.0
2017-Oct-17 01:00N 31°58' W 080°37'0 0.0
2017-Oct-17 00:30N 31°58' W 080°37'0 0.0
2017-Oct-17 00:00N 31°58' W 080°37'0 0.5
2017-Oct-16 23:30N 31°58' W 080°37'0 0.1
2017-Oct-16 23:00N 31°58' W 080°37'0 0.0
2017-Oct-16 22:30N 31°58' W 080°37'0 0.1
2017-Oct-16 22:00N 31°58' W 080°37'0 0.1
2017-Oct-16 21:30N 31°58' W 080°37'0 0.1
2017-Oct-16 21:00N 31°58' W 080°37'0 0.1
2017-Oct-16 20:30N 31°58' W 080°37'0 0.3
2017-Oct-16 20:00N 31°58' W 080°37'0 0.0
2017-Oct-16 19:30N 31°58' W 080°37'0 0.0
2017-Oct-16 19:00N 31°58' W 080°37'0 0.0
2017-Oct-16 18:30N 31°58' W 080°37'0 0.0
2017-Oct-16 18:00N 31°58' W 080°37'0 0.0
2017-Oct-16 17:30N 31°58' W 080°37'0 0.3
2017-Oct-16 17:00N 31°58' W 080°37'0 0.2
2017-Oct-16 16:30N 31°58' W 080°37'0 0.1
2017-Oct-16 16:00N 31°58' W 080°37'0 0.0
2017-Oct-16 15:30N 31°58' W 080°37'0 0.0
2017-Oct-16 15:00N 31°58' W 080°37'0 0.0
2017-Oct-16 14:00N 31°58' W 080°37'0 0.0
2017-Oct-16 13:30N 31°58' W 080°37'0 0.0
2017-Oct-16 13:00N 31°58' W 080°37'0 0.0
2017-Oct-16 12:28N 31°58' W 080°37'0 0.2
2017-Oct-16 12:00N 31°58' W 080°37'2 4.2
2017-Oct-16 11:30N 31°59' W 080°35'3 5.2
2017-Oct-16 11:00N 31°59' W 080°32'510.1
2017-Oct-16 10:30N 32°00' W 080°26'610.2
2017-Oct-16 09:54N 31°60' W 080°19'4 9.8
2017-Oct-16 09:30N 32°00' W 080°14'510.4
2017-Oct-16 09:00N 32°04' W 080°09'713.8
2017-Oct-16 08:30N 32°08' W 080°03'714.1
2017-Oct-16 08:00N 32°12' W 079°56'714.2
2017-Oct-16 07:29N 32°17' W 079°49'1114.2
2017-Oct-16 06:42N 32°24' W 079°39'311.8
2017-Oct-16 06:29N 32°26' W 079°38'613.7
2017-Oct-16 06:00N 32°32' W 079°38'713.1
2017-Oct-16 05:29N 32°39' W 079°41'611.6
2017-Oct-16 04:57N 32°42' W 079°47'713.6
2017-Oct-16 04:27N 32°46' W 079°53'4 8.8
2017-Oct-16 03:59N 32°50' W 079°56'5 6.4
2017-Oct-16 03:16N 32°54' W 079°57'3 0.2
2017-Oct-15 12:58N 32°51' W 079°57'6 7.3
2017-Oct-15 12:06N 32°46' W 079°53'511.5
2017-Oct-15 11:39N 32°43' W 079°48'716.5
2017-Oct-15 11:14N 32°40' W 079°41'311.0
2017-Oct-15 11:00N 32°39' W 079°38'18817.1
2017-Oct-15 00:00N 32°48' W 075°54'20717.2 050 / 101021.310.8 26.018.230.0
2017-Oct-14 12:00N 33°00' W 071°48'11919.8 110 / 161022.410.8 26.021.528.0
2017-Oct-14 06:00N 34°18' W 070°00'35219.6 130 / 261021.5 2.2 24.022.528.0
2017-Oct-13 12:00N 37°36' W 064°00'28023.4 060 / 221026.710.8 22.013.428.0
2017-Oct-13 00:00N 39°36' W 058°36'8113.6 030 / 161023.310.8 18.010.628.0
2017-Oct-12 18:00N 40°36' W 057°24'12020.0 360 / 161020.910.8 18.010.628.0
2017-Oct-12 12:00N 41°36' W 055°06'   320 / 151019.810.8 15.0 1.326.0

Dump ship's entire track history